Terminal Aerodrome Forecast
Issued by NWS

Home | Current Version | Previous Version | Text Only | Print | Product List | Glossary On
Versions: 1 2 3 4 5 6 7 8 9 10 11 12 13 14 15
360
FTUS43 KEAX 250105 AAA
TAFMKC
TAF AMD
KMKC 250105Z 2501/2524 35007KT P6SM BKN100
      TEMPO 2501/2503 31015G25KT -SHRA OVC070
     FM251000 35005KT P6SM VCSH BKN050
     FM251300 36007KT 5SM -RA BR OVC015
     FM251500 03005KT 4SM -RA BR OVC009
     FM252200 02006KT P6SM OVC015=

USA.gov is the U.S. government's official web portal to all federal, state and local government web resources and services.